Flight Track Log - Related Links

Times and Time Zones

All times are in EDT time to prevent confusion due to time zone crossing. See the N776MA flight status page for this flight to view local times or setup timezone preferences in your user account.

Time Position Orientation Groundspeed Altitude Reporting Facility
EDT Latitude Longitude Course Direction KTS MPH feet Rate Location/Type
Fri 04:13:35 PM 43.5986 -70.2497 210° Southwest 179 206 3,500  Level Boston Center
Fri 04:14:35 PM 43.5408 -70.2833 203° Southwest 208 239 6,600 2,950 Climbing Boston Center
Fri 04:15:35 PM 43.4622 -70.3119 195° South 258 297 9,400 2,400 Climbing Boston Center
Fri 04:16:35 PM 43.3917 -70.3342 193° South 288 331 11,400 2,150 Climbing Boston Center
Fri 04:17:35 PM 43.2903 -70.3664 193° South 329 379 13,700 2,650 Climbing Boston Center
Fri 04:18:00 PM 43.1500 -70.7052 270° West  Level FlightAware Approximate
Fri 04:18:35 PM 43.2031 -70.3922 192° South 361 415 16,700  Level Boston Center
Fri 04:19:00 PM 43.0730 -70.7650 210° Southwest  Level FlightAware Approximate
Fri 04:19:35 PM 43.1103 -70.4408 201° Southwest 367 422 18,900  Level Boston Center
Fri 04:20:35 PM 43.0456 -70.5536 232° Southwest 359 413 21,100 2,150 Climbing Boston Center
Fri 04:21:35 PM 42.9828 -70.6692 233° Southwest 364 419 23,200 2,100 Climbing Boston Center
Fri 04:22:35 PM 42.9156 -70.7872 232° Southwest 384 442 25,300 1,900 Climbing Boston Center
Fri 04:23:35 PM 42.8467 -70.9108 233° Southwest 404 465 27,000 1,850 Climbing Boston Center
Fri 04:24:35 PM 42.7794 -71.0369 234° Southwest 409 471 29,000 1,950 Climbing Boston Center
Fri 04:25:35 PM 42.7100 -71.1572 232° Southwest 414 476 30,900 1,950 Climbing Boston Center
Fri 04:26:35 PM 42.6406 -71.2828 233° Southwest 414 476 32,900 2,100 Climbing Boston Center
Fri 04:27:35 PM 42.5708 -71.4056 232° Southwest 414 476 35,100 1,500 Climbing Boston Center
Fri 04:28:35 PM 42.5031 -71.5278 233° Southwest 414 476 35,900 450 Climbing Boston Center
Fri 04:29:35 PM 42.4308 -71.6414 229° Southwest 414 476 36,000 45 Climbing Boston Center
Fri 04:30:47 PM 42.3608 -71.7603 231° Southwest 414 476 36,000  Level Boston Center
Fri 04:31:47 PM 42.2783 -71.9014 232° Southwest 408 470 36,000  Level Boston Center
Fri 04:32:47 PM 42.2100 -72.0197 232° Southwest 408 470 36,000  Level Boston Center
Fri 04:33:47 PM 42.1417 -72.1378 232° Southwest 408 470 36,000  Level Boston Center
Fri 04:34:47 PM 42.0731 -72.2556 232° Southwest 408 470 36,000  Level Boston Center
Fri 04:35:47 PM 42.0044 -72.3731 232° Southwest 408 470 36,000  Level Boston Center
Fri 04:36:47 PM 41.9336 -72.4903 231° Southwest 408 470 36,000  Level Boston Center
Fri 04:37:47 PM 41.8647 -72.6072 232° Southwest 408 470 36,000  Level Boston Center
Fri 04:38:47 PM 41.7956 -72.7269 232° Southwest 404 465 36,000  Level Boston Center
Fri 04:39:47 PM 41.7264 -72.8406 231° Southwest 412 474 36,000 -50 Level Boston Center
Fri 04:40:47 PM 41.6572 -72.9597 232° Southwest 412 474 35,900 -750 Descending Boston Center
Fri 04:41:47 PM 41.5878 -73.0756 231° Southwest 412 474 34,500 -1,550 Descending Boston Center
Fri 04:42:47 PM 41.5183 -73.1997 233° Southwest 412 474 32,800 -1,650 Descending Boston Center
Fri 04:43:47 PM 41.4486 -73.3153 231° Southwest 407 468 31,200 -1,074 Descending Boston Center
Fri 04:45:29 PM 41.3383 -73.5042 232° Southwest 407 468 29,900 -479 Descending New York Center
Fri 04:46:30 PM 41.2689 -73.6253 233° Southwest 407 468 29,900  Level New York Center
Fri 04:47:31 PM 41.1992 -73.7464 233° Southwest 407 468 29,900  Level New York Center
Fri 04:48:31 PM 41.1314 -73.8675 233° Southwest 407 468 29,900  Level New York Center
Fri 04:49:30 PM 41.0553 -73.9850 229° Southwest 413 475 29,900 -600 Level New York Center
Fri 04:50:31 PM 40.9833 -74.1025 231° Southwest 413 475 28,700 -950 Descending New York Center
Fri 04:51:30 PM 40.9094 -74.2142 229° Southwest 413 475 28,000 -353 Descending New York Center
Fri 04:52:30 PM 40.8350 -74.3283 229° Southwest 413 475 28,000 -298 Level New York Center
Fri 04:53:31 PM 40.7628 -74.4450 231° Southwest 418 481 27,400 -893 Descending New York Center
Fri 04:54:31 PM 40.7022 -74.5786 239° Southwest 424 488 26,200 -1,436 Descending New York Center
Fri 04:55:28 PM 40.6456 -74.7178 242° Southwest 429 494 24,600 -1,576 Descending New York Center
Fri 04:56:29 PM 40.6094 -74.8633 252° West 429 494 23,100 -1,488 Descending New York Center
Fri 04:57:29 PM 40.5650 -74.9972 246° West 420 483 21,600 -1,550 Descending New York Center
Fri 04:58:29 PM 40.4828 -75.0878 220° Southwest 390 449 20,000 -1,289 Descending New York Center
Fri 04:59:30 PM 40.4025 -75.1700 218° Southwest 378 435 19,000 -504 Descending New York Center
Fri 05:00:28 PM 40.3244 -75.2519 219° Southwest 372 428 19,000  Level New York Center
Fri 05:01:29 PM 40.2356 -75.3414 218° Southwest 367 422 19,000  Level New York Center
Fri 05:02:29 PM 40.1658 -75.4156 219° Southwest 367 422 19,000  Level New York Center
Fri 05:03:31 PM 40.0767 -75.5072 218° Southwest 367 422 19,000  Level New York Center
Fri 05:04:30 PM 40.0050 -75.5836 219° Southwest 367 422 19,000 -700 Level New York Center
Fri 05:05:31 PM 39.9178 -75.6753 219° Southwest 367 422 17,600 -1,438 Descending New York Center
Fri 05:06:31 PM 39.8636 -75.7714 234° Southwest 367 422 16,100 -1,576 Descending New York Center
Fri 05:07:29 PM 39.8111 -75.8786 238° Southwest 367 422 14,500 -1,295 Descending New York Center
Fri 05:09:41 PM 39.6833 -76.1333 237° Southwest 348 400 12,000 -938 Descending Potomac TRACON
Fri 05:10:41 PM 39.6333 -76.2333 237° Southwest 323 372 11,500 -1,050 Descending Potomac TRACON
Fri 05:11:41 PM 39.5833 -76.3167 232° Southwest 302 348 9,900 -1,850 Descending Potomac TRACON
Fri 05:12:41 PM 39.5500 -76.4000 243° Southwest 254 292 7,800 -2,100 Descending Potomac TRACON
Fri 05:13:41 PM 39.5167 -76.4833 243° Southwest 259 298 5,700 -2,053 Descending Potomac TRACON
Fri 05:14:35 PM 39.5000 -76.5667 255° West 287 330 3,900 -1,486 Descending Potomac TRACON
Fri 05:15:30 PM 39.4333 -76.6000 201° Southwest 281 323 3,000 -446 Descending Potomac TRACON
Fri 05:16:36 PM 39.3500 -76.5833 171° South 271 312 3,000  Level Potomac TRACON
Fri 05:17:36 PM 39.3000 -76.5167 134° Southeast 261 300 3,000  Level Potomac TRACON
Fri 05:18:36 PM 39.2500 -76.4667 142° Southeast 241 277 3,000  Level Potomac TRACON

Login

Don't have an account? Register now (free) for customized features, flight alerts, and more!